Terminal Aerodrome Forecast
Issued by NWS

Home | Current Version | Previous Version | Text Only | Print | Product List | Glossary On
Versions: 1 2 3 4 5 6 7 8 9 10 11 12 13 14 15 16 17 18 19 20 21 22 23 24 25
000
FTUS43 KDLH 220000 AAA
TAFBRD
TAF AMD
KBRD 220059Z 2201/2224 15008KT 1 1/2SM BR OVC003
      TEMPO 2201/2204 3/4SM -FZDZ BR OVC003
     FM220400 14006KT 3/4SM -DZ OVC003
     FM221000 12005KT 1SM -DZ BR OVC003=

USA.gov is the U.S. government's official web portal to all federal, state and local government web resources and services.